sensor_id;sensor_type;location;lat;lon;timestamp;P1;durP1;ratioP1;P2;durP2;ratioP2
26702;SDS011;14316;51.074;3.704;2024-01-30T00:02:14;9.40;;;7.93;;
26702;SDS011;14316;51.074;3.704;2024-01-30T00:04:40;11.05;;;8.65;;
26702;SDS011;14316;51.074;3.704;2024-01-30T00:07:06;9.45;;;8.10;;
26702;SDS011;14316;51.074;3.704;2024-01-30T00:09:32;10.70;;;8.77;;
26702;SDS011;14316;51.074;3.704;2024-01-30T00:11:58;10.88;;;9.10;;
26702;SDS011;14316;51.074;3.704;2024-01-30T00:14:30;11.77;;;9.15;;
26702;SDS011;14316;51.074;3.704;2024-01-30T00:16:56;8.18;;;6.90;;
26702;SDS011;14316;51.074;3.704;2024-01-30T00:19:22;10.23;;;7.82;;
26702;SDS011;14316;51.074;3.704;2024-01-30T00:21:48;9.52;;;6.43;;
26702;SDS011;14316;51.074;3.704;2024-01-30T00:24:14;10.82;;;8.75;;
26702;SDS011;14316;51.074;3.704;2024-01-30T00:26:40;10.75;;;8.68;;
26702;SDS011;14316;51.074;3.704;2024-01-30T00:29:06;9.68;;;7.35;;
26702;SDS011;14316;51.074;3.704;2024-01-30T00:31:32;12.77;;;8.27;;
26702;SDS011;14316;51.074;3.704;2024-01-30T00:33:58;8.90;;;6.38;;
26702;SDS011;14316;51.074;3.704;2024-01-30T00:36:24;11.05;;;8.82;;
26702;SDS011;14316;51.074;3.704;2024-01-30T00:38:50;9.98;;;7.03;;
26702;SDS011;14316;51.074;3.704;2024-01-30T00:41:17;10.60;;;7.75;;
26702;SDS011;14316;51.074;3.704;2024-01-30T00:43:44;11.00;;;8.93;;
26702;SDS011;14316;51.074;3.704;2024-01-30T00:46:10;7.70;;;5.78;;
26702;SDS011;14316;51.074;3.704;2024-01-30T00:48:36;12.23;;;8.48;;
26702;SDS011;14316;51.074;3.704;2024-01-30T00:51:02;8.35;;;5.97;;
26702;SDS011;14316;51.074;3.704;2024-01-30T00:53:28;11.05;;;8.38;;
26702;SDS011;14316;51.074;3.704;2024-01-30T00:55:54;10.55;;;6.35;;
26702;SDS011;14316;51.074;3.704;2024-01-30T00:58:20;9.75;;;8.07;;
26702;SDS011;14316;51.074;3.704;2024-01-30T01:00:46;12.90;;;7.97;;
26702;SDS011;14316;51.074;3.704;2024-01-30T01:03:12;11.10;;;8.15;;
26702;SDS011;14316;51.074;3.704;2024-01-30T01:05:39;11.05;;;9.35;;
26702;SDS011;14316;51.074;3.704;2024-01-30T01:08:05;9.43;;;8.50;;
26702;SDS011;14316;51.074;3.704;2024-01-30T01:10:31;11.35;;;7.88;;
26702;SDS011;14316;51.074;3.704;2024-01-30T01:12:57;7.93;;;5.93;;
26702;SDS011;14316;51.074;3.704;2024-01-30T01:15:23;10.98;;;8.38;;
26702;SDS011;14316;51.074;3.704;2024-01-30T01:17:49;11.27;;;8.40;;
26702;SDS011;14316;51.074;3.704;2024-01-30T01:20:15;9.55;;;8.27;;
26702;SDS011;14316;51.074;3.704;2024-01-30T01:22:41;10.85;;;9.38;;
26702;SDS011;14316;51.074;3.704;2024-01-30T01:25:08;10.68;;;7.55;;
26702;SDS011;14316;51.074;3.704;2024-01-30T01:27:35;12.27;;;8.80;;
26702;SDS011;14316;51.074;3.704;2024-01-30T01:30:06;10.75;;;8.40;;
26702;SDS011;14316;51.074;3.704;2024-01-30T01:32:36;12.77;;;8.63;;
26702;SDS011;14316;51.074;3.704;2024-01-30T01:35:03;9.48;;;8.40;;
26702;SDS011;14316;51.074;3.704;2024-01-30T01:37:32;10.55;;;8.32;;
26702;SDS011;14316;51.074;3.704;2024-01-30T01:39:59;10.65;;;8.48;;
26702;SDS011;14316;51.074;3.704;2024-01-30T01:42:25;12.20;;;8.00;;
26702;SDS011;14316;51.074;3.704;2024-01-30T01:44:51;14.68;;;9.30;;
26702;SDS011;14316;51.074;3.704;2024-01-30T01:47:17;9.63;;;7.35;;
26702;SDS011;14316;51.074;3.704;2024-01-30T01:49:43;8.35;;;5.68;;
26702;SDS011;14316;51.074;3.704;2024-01-30T01:52:09;12.25;;;9.00;;
26702;SDS011;14316;51.074;3.704;2024-01-30T01:54:35;10.43;;;8.68;;
26702;SDS011;14316;51.074;3.704;2024-01-30T01:57:01;13.20;;;9.40;;
26702;SDS011;14316;51.074;3.704;2024-01-30T01:59:28;11.50;;;8.98;;
26702;SDS011;14316;51.074;3.704;2024-01-30T02:01:54;11.60;;;8.85;;
26702;SDS011;14316;51.074;3.704;2024-01-30T02:04:21;9.02;;;7.72;;
26702;SDS011;14316;51.074;3.704;2024-01-30T02:06:47;11.32;;;8.40;;
26702;SDS011;14316;51.074;3.704;2024-01-30T02:09:13;9.55;;;7.57;;
26702;SDS011;14316;51.074;3.704;2024-01-30T02:11:39;10.20;;;8.05;;
26702;SDS011;14316;51.074;3.704;2024-01-30T02:14:06;12.00;;;8.13;;
26702;SDS011;14316;51.074;3.704;2024-01-30T02:16:32;10.90;;;6.78;;
26702;SDS011;14316;51.074;3.704;2024-01-30T02:18:58;9.65;;;7.93;;
26702;SDS011;14316;51.074;3.704;2024-01-30T02:21:23;9.63;;;7.72;;
26702;SDS011;14316;51.074;3.704;2024-01-30T02:23:50;11.07;;;8.45;;
26702;SDS011;14316;51.074;3.704;2024-01-30T02:26:17;6.25;;;4.78;;
26702;SDS011;14316;51.074;3.704;2024-01-30T02:28:43;8.98;;;7.53;;
26702;SDS011;14316;51.074;3.704;2024-01-30T02:31:09;10.45;;;9.40;;
26702;SDS011;14316;51.074;3.704;2024-01-30T02:33:35;9.68;;;7.43;;
26702;SDS011;14316;51.074;3.704;2024-01-30T02:36:01;9.55;;;7.22;;
26702;SDS011;14316;51.074;3.704;2024-01-30T02:38:27;10.98;;;7.65;;
26702;SDS011;14316;51.074;3.704;2024-01-30T02:40:54;10.88;;;9.18;;
26702;SDS011;14316;51.074;3.704;2024-01-30T02:43:20;10.65;;;7.85;;
26702;SDS011;14316;51.074;3.704;2024-01-30T02:45:46;9.07;;;7.07;;
26702;SDS011;14316;51.074;3.704;2024-01-30T02:48:12;9.48;;;6.18;;
26702;SDS011;14316;51.074;3.704;2024-01-30T02:50:38;7.80;;;5.38;;
26702;SDS011;14316;51.074;3.704;2024-01-30T02:53:04;7.78;;;6.45;;
26702;SDS011;14316;51.074;3.704;2024-01-30T02:55:30;11.77;;;7.95;;
26702;SDS011;14316;51.074;3.704;2024-01-30T02:57:56;11.40;;;8.90;;
26702;SDS011;14316;51.074;3.704;2024-01-30T03:00:21;10.15;;;8.38;;
26702;SDS011;14316;51.074;3.704;2024-01-30T03:02:48;10.07;;;7.43;;
26702;SDS011;14316;51.074;3.704;2024-01-30T03:05:14;9.15;;;7.30;;
26702;SDS011;14316;51.074;3.704;2024-01-30T03:07:40;8.55;;;6.35;;
26702;SDS011;14316;51.074;3.704;2024-01-30T03:10:06;11.80;;;10.30;;
26702;SDS011;14316;51.074;3.704;2024-01-30T03:12:32;13.13;;;10.00;;
26702;SDS011;14316;51.074;3.704;2024-01-30T03:14:58;12.95;;;7.65;;
26702;SDS011;14316;51.074;3.704;2024-01-30T03:17:24;12.38;;;9.32;;
26702;SDS011;14316;51.074;3.704;2024-01-30T03:19:50;12.10;;;9.98;;
26702;SDS011;14316;51.074;3.704;2024-01-30T03:22:16;11.10;;;9.18;;
26702;SDS011;14316;51.074;3.704;2024-01-30T03:24:42;12.65;;;9.40;;
26702;SDS011;14316;51.074;3.704;2024-01-30T03:27:08;8.48;;;6.18;;
26702;SDS011;14316;51.074;3.704;2024-01-30T03:29:34;11.55;;;9.90;;
26702;SDS011;14316;51.074;3.704;2024-01-30T03:32:00;11.52;;;8.10;;
26702;SDS011;14316;51.074;3.704;2024-01-30T03:34:27;9.85;;;7.28;;
26702;SDS011;14316;51.074;3.704;2024-01-30T03:36:52;9.25;;;7.70;;
26702;SDS011;14316;51.074;3.704;2024-01-30T03:39:18;10.70;;;8.77;;
26702;SDS011;14316;51.074;3.704;2024-01-30T03:41:44;12.50;;;8.07;;
26702;SDS011;14316;51.074;3.704;2024-01-30T03:44:10;13.35;;;8.45;;
26702;SDS011;14316;51.074;3.704;2024-01-30T03:46:36;11.85;;;8.15;;
26702;SDS011;14316;51.074;3.704;2024-01-30T03:49:02;12.82;;;8.93;;
26702;SDS011;14316;51.074;3.704;2024-01-30T03:51:28;10.85;;;8.10;;
26702;SDS011;14316;51.074;3.704;2024-01-30T03:53:54;11.82;;;8.60;;
26702;SDS011;14316;51.074;3.704;2024-01-30T03:56:20;9.82;;;8.13;;
26702;SDS011;14316;51.074;3.704;2024-01-30T03:58:46;9.32;;;7.65;;
26702;SDS011;14316;51.074;3.704;2024-01-30T04:01:13;14.00;;;10.57;;
26702;SDS011;14316;51.074;3.704;2024-01-30T04:03:40;14.18;;;10.40;;
26702;SDS011;14316;51.074;3.704;2024-01-30T04:06:06;12.82;;;9.85;;
26702;SDS011;14316;51.074;3.704;2024-01-30T04:08:32;13.95;;;10.18;;
26702;SDS011;14316;51.074;3.704;2024-01-30T04:10:58;13.57;;;9.38;;
26702;SDS011;14316;51.074;3.704;2024-01-30T04:13:28;13.10;;;10.30;;
26702;SDS011;14316;51.074;3.704;2024-01-30T04:15:53;13.43;;;10.20;;
26702;SDS011;14316;51.074;3.704;2024-01-30T04:18:20;11.80;;;10.35;;
26702;SDS011;14316;51.074;3.704;2024-01-30T04:20:46;12.98;;;10.40;;
26702;SDS011;14316;51.074;3.704;2024-01-30T04:23:12;13.45;;;10.90;;
26702;SDS011;14316;51.074;3.704;2024-01-30T04:25:38;13.15;;;10.00;;
26702;SDS011;14316;51.074;3.704;2024-01-30T04:28:04;11.60;;;7.38;;
26702;SDS011;14316;51.074;3.704;2024-01-30T04:30:30;13.57;;;11.20;;
26702;SDS011;14316;51.074;3.704;2024-01-30T04:32:55;14.07;;;10.13;;
26702;SDS011;14316;51.074;3.704;2024-01-30T04:35:21;14.23;;;10.15;;
26702;SDS011;14316;51.074;3.704;2024-01-30T04:37:50;11.38;;;8.90;;
26702;SDS011;14316;51.074;3.704;2024-01-30T04:40:17;12.93;;;9.45;;
26702;SDS011;14316;51.074;3.704;2024-01-30T04:42:43;12.02;;;9.88;;
26702;SDS011;14316;51.074;3.704;2024-01-30T04:45:09;11.63;;;8.93;;
26702;SDS011;14316;51.074;3.704;2024-01-30T04:47:35;14.43;;;11.13;;
26702;SDS011;14316;51.074;3.704;2024-01-30T04:50:01;12.82;;;10.18;;
26702;SDS011;14316;51.074;3.704;2024-01-30T04:52:29;12.15;;;10.50;;
26702;SDS011;14316;51.074;3.704;2024-01-30T04:54:55;14.77;;;11.65;;
26702;SDS011;14316;51.074;3.704;2024-01-30T04:57:21;14.50;;;11.73;;
26702;SDS011;14316;51.074;3.704;2024-01-30T04:59:47;13.20;;;10.13;;
26702;SDS011;14316;51.074;3.704;2024-01-30T05:02:13;14.10;;;12.07;;
26702;SDS011;14316;51.074;3.704;2024-01-30T05:04:40;13.90;;;10.75;;
26702;SDS011;14316;51.074;3.704;2024-01-30T05:07:06;15.48;;;10.02;;
26702;SDS011;14316;51.074;3.704;2024-01-30T05:09:32;15.23;;;10.35;;
26702;SDS011;14316;51.074;3.704;2024-01-30T05:11:58;12.73;;;9.77;;
26702;SDS011;14316;51.074;3.704;2024-01-30T05:14:24;13.32;;;10.88;;
26702;SDS011;14316;51.074;3.704;2024-01-30T05:16:50;10.32;;;8.90;;
26702;SDS011;14316;51.074;3.704;2024-01-30T05:19:16;14.48;;;10.38;;
26702;SDS011;14316;51.074;3.704;2024-01-30T05:21:42;13.38;;;9.13;;
26702;SDS011;14316;51.074;3.704;2024-01-30T05:24:08;10.70;;;8.68;;
26702;SDS011;14316;51.074;3.704;2024-01-30T05:26:35;13.20;;;8.18;;
26702;SDS011;14316;51.074;3.704;2024-01-30T05:29:01;11.73;;;10.32;;
26702;SDS011;14316;51.074;3.704;2024-01-30T05:31:27;12.05;;;8.63;;
26702;SDS011;14316;51.074;3.704;2024-01-30T05:33:54;14.93;;;9.27;;
26702;SDS011;14316;51.074;3.704;2024-01-30T05:36:20;9.32;;;6.68;;
26702;SDS011;14316;51.074;3.704;2024-01-30T05:38:46;14.18;;;9.38;;
26702;SDS011;14316;51.074;3.704;2024-01-30T05:41:12;12.40;;;8.23;;
26702;SDS011;14316;51.074;3.704;2024-01-30T05:43:38;12.50;;;10.45;;
26702;SDS011;14316;51.074;3.704;2024-01-30T05:46:04;11.63;;;9.57;;
26702;SDS011;14316;51.074;3.704;2024-01-30T05:48:31;14.50;;;6.47;;
26702;SDS011;14316;51.074;3.704;2024-01-30T05:50:58;14.05;;;9.50;;
26702;SDS011;14316;51.074;3.704;2024-01-30T05:53:25;11.20;;;7.97;;
26702;SDS011;14316;51.074;3.704;2024-01-30T05:55:51;13.52;;;9.93;;
26702;SDS011;14316;51.074;3.704;2024-01-30T05:58:16;14.00;;;8.63;;
26702;SDS011;14316;51.074;3.704;2024-01-30T06:00:42;13.77;;;8.52;;
26702;SDS011;14316;51.074;3.704;2024-01-30T06:03:08;14.32;;;10.57;;
26702;SDS011;14316;51.074;3.704;2024-01-30T06:05:34;11.57;;;8.15;;
26702;SDS011;14316;51.074;3.704;2024-01-30T06:08:00;13.60;;;10.07;;
26702;SDS011;14316;51.074;3.704;2024-01-30T06:10:27;13.70;;;10.55;;
26702;SDS011;14316;51.074;3.704;2024-01-30T06:12:52;13.85;;;9.75;;
26702;SDS011;14316;51.074;3.704;2024-01-30T06:15:18;13.05;;;10.13;;
26702;SDS011;14316;51.074;3.704;2024-01-30T06:17:44;13.93;;;10.05;;
26702;SDS011;14316;51.074;3.704;2024-01-30T06:20:10;10.38;;;7.78;;
26702;SDS011;14316;51.074;3.704;2024-01-30T06:22:35;16.58;;;11.38;;
26702;SDS011;14316;51.074;3.704;2024-01-30T06:25:01;10.02;;;7.35;;
26702;SDS011;14316;51.074;3.704;2024-01-30T06:27:27;13.32;;;10.50;;
26702;SDS011;14316;51.074;3.704;2024-01-30T06:29:53;14.57;;;8.25;;
26702;SDS011;14316;51.074;3.704;2024-01-30T06:32:19;13.02;;;10.80;;
26702;SDS011;14316;51.074;3.704;2024-01-30T06:34:45;14.15;;;10.68;;
26702;SDS011;14316;51.074;3.704;2024-01-30T06:37:11;11.10;;;8.63;;
26702;SDS011;14316;51.074;3.704;2024-01-30T06:39:37;18.33;;;10.13;;
26702;SDS011;14316;51.074;3.704;2024-01-30T06:42:03;13.63;;;11.00;;
26702;SDS011;14316;51.074;3.704;2024-01-30T06:44:29;11.65;;;8.82;;
26702;SDS011;14316;51.074;3.704;2024-01-30T06:46:55;14.15;;;8.77;;
26702;SDS011;14316;51.074;3.704;2024-01-30T06:49:21;13.25;;;10.02;;
26702;SDS011;14316;51.074;3.704;2024-01-30T06:51:47;15.65;;;10.43;;
26702;SDS011;14316;51.074;3.704;2024-01-30T06:54:13;15.10;;;10.70;;
26702;SDS011;14316;51.074;3.704;2024-01-30T06:56:39;13.48;;;9.85;;
26702;SDS011;14316;51.074;3.704;2024-01-30T06:59:05;13.43;;;10.10;;
26702;SDS011;14316;51.074;3.704;2024-01-30T07:01:31;14.38;;;9.25;;
26702;SDS011;14316;51.074;3.704;2024-01-30T07:03:57;14.18;;;9.32;;
26702;SDS011;14316;51.074;3.704;2024-01-30T07:06:23;13.40;;;9.48;;
26702;SDS011;14316;51.074;3.704;2024-01-30T07:08:49;13.65;;;9.38;;
26702;SDS011;14316;51.074;3.704;2024-01-30T07:11:19;14.65;;;9.98;;
26702;SDS011;14316;51.074;3.704;2024-01-30T07:13:50;10.05;;;7.07;;
26702;SDS011;14316;51.074;3.704;2024-01-30T07:16:16;11.13;;;9.55;;
26702;SDS011;14316;51.074;3.704;2024-01-30T07:18:43;18.15;;;10.32;;
26702;SDS011;14316;51.074;3.704;2024-01-30T07:21:09;15.52;;;10.25;;
26702;SDS011;14316;51.074;3.704;2024-01-30T07:23:35;12.48;;;10.30;;
26702;SDS011;14316;51.074;3.704;2024-01-30T07:26:04;14.43;;;7.82;;
26702;SDS011;14316;51.074;3.704;2024-01-30T07:28:31;19.25;;;10.43;;
26702;SDS011;14316;51.074;3.704;2024-01-30T07:30:58;12.45;;;8.80;;
26702;SDS011;14316;51.074;3.704;2024-01-30T07:33:24;15.45;;;10.25;;
26702;SDS011;14316;51.074;3.704;2024-01-30T07:35:51;14.40;;;9.02;;
26702;SDS011;14316;51.074;3.704;2024-01-30T07:38:18;15.25;;;8.93;;
26702;SDS011;14316;51.074;3.704;2024-01-30T07:40:44;15.25;;;10.50;;
26702;SDS011;14316;51.074;3.704;2024-01-30T07:43:10;13.48;;;9.43;;
26702;SDS011;14316;51.074;3.704;2024-01-30T07:45:36;17.73;;;9.55;;
26702;SDS011;14316;51.074;3.704;2024-01-30T07:48:04;14.27;;;9.98;;
26702;SDS011;14316;51.074;3.704;2024-01-30T07:50:30;18.48;;;10.45;;
26702;SDS011;14316;51.074;3.704;2024-01-30T07:52:58;13.88;;;9.82;;
26702;SDS011;14316;51.074;3.704;2024-01-30T07:55:25;23.05;;;11.30;;
26702;SDS011;14316;51.074;3.704;2024-01-30T07:57:53;23.80;;;11.07;;
26702;SDS011;14316;51.074;3.704;2024-01-30T08:00:20;18.42;;;10.10;;
26702;SDS011;14316;51.074;3.704;2024-01-30T08:02:47;13.75;;;7.28;;
26702;SDS011;14316;51.074;3.704;2024-01-30T08:05:13;13.93;;;8.82;;
26702;SDS011;14316;51.074;3.704;2024-01-30T08:07:40;13.95;;;9.70;;
26702;SDS011;14316;51.074;3.704;2024-01-30T08:10:11;18.25;;;10.73;;
26702;SDS011;14316;51.074;3.704;2024-01-30T08:12:38;10.80;;;7.07;;
26702;SDS011;14316;51.074;3.704;2024-01-30T08:15:04;13.95;;;10.82;;
26702;SDS011;14316;51.074;3.704;2024-01-30T08:17:30;12.95;;;8.98;;
26702;SDS011;14316;51.074;3.704;2024-01-30T08:19:56;11.75;;;6.75;;
26702;SDS011;14316;51.074;3.704;2024-01-30T08:22:22;13.25;;;8.65;;
26702;SDS011;14316;51.074;3.704;2024-01-30T08:24:48;14.73;;;9.40;;
26702;SDS011;14316;51.074;3.704;2024-01-30T08:27:14;16.25;;;10.20;;
26702;SDS011;14316;51.074;3.704;2024-01-30T08:29:40;17.38;;;11.27;;
26702;SDS011;14316;51.074;3.704;2024-01-30T08:32:06;11.60;;;8.02;;
26702;SDS011;14316;51.074;3.704;2024-01-30T08:34:32;18.35;;;10.00;;
26702;SDS011;14316;51.074;3.704;2024-01-30T08:36:59;17.35;;;9.38;;
26702;SDS011;14316;51.074;3.704;2024-01-30T08:39:25;21.73;;;12.90;;
26702;SDS011;14316;51.074;3.704;2024-01-30T08:41:51;22.08;;;13.38;;
26702;SDS011;14316;51.074;3.704;2024-01-30T08:44:17;12.40;;;8.70;;
26702;SDS011;14316;51.074;3.704;2024-01-30T08:46:43;12.77;;;7.82;;
26702;SDS011;14316;51.074;3.704;2024-01-30T08:49:10;18.38;;;11.15;;
26702;SDS011;14316;51.074;3.704;2024-01-30T08:51:38;14.18;;;9.82;;
26702;SDS011;14316;51.074;3.704;2024-01-30T08:54:05;18.52;;;9.75;;
26702;SDS011;14316;51.074;3.704;2024-01-30T08:56:30;12.13;;;7.55;;
26702;SDS011;14316;51.074;3.704;2024-01-30T08:58:56;17.65;;;10.55;;
26702;SDS011;14316;51.074;3.704;2024-01-30T09:01:22;15.20;;;9.02;;
26702;SDS011;14316;51.074;3.704;2024-01-30T09:03:48;13.88;;;8.20;;
26702;SDS011;14316;51.074;3.704;2024-01-30T09:06:14;15.80;;;8.77;;
26702;SDS011;14316;51.074;3.704;2024-01-30T09:08:40;16.48;;;10.32;;
26702;SDS011;14316;51.074;3.704;2024-01-30T09:11:09;12.45;;;6.72;;
26702;SDS011;14316;51.074;3.704;2024-01-30T09:13:39;12.20;;;8.02;;
26702;SDS011;14316;51.074;3.704;2024-01-30T09:16:06;10.52;;;6.65;;
26702;SDS011;14316;51.074;3.704;2024-01-30T09:18:32;13.48;;;6.78;;
26702;SDS011;14316;51.074;3.704;2024-01-30T09:20:58;14.38;;;7.85;;
26702;SDS011;14316;51.074;3.704;2024-01-30T09:23:25;16.35;;;6.05;;
26702;SDS011;14316;51.074;3.704;2024-01-30T09:25:52;12.65;;;7.30;;
26702;SDS011;14316;51.074;3.704;2024-01-30T09:28:18;11.70;;;4.70;;
26702;SDS011;14316;51.074;3.704;2024-01-30T09:30:44;8.68;;;3.38;;
26702;SDS011;14316;51.074;3.704;2024-01-30T09:33:10;9.68;;;3.30;;
26702;SDS011;14316;51.074;3.704;2024-01-30T09:35:36;10.23;;;4.05;;
26702;SDS011;14316;51.074;3.704;2024-01-30T09:38:02;5.63;;;2.22;;
26702;SDS011;14316;51.074;3.704;2024-01-30T09:40:28;4.18;;;2.05;;
26702;SDS011;14316;51.074;3.704;2024-01-30T09:42:54;3.05;;;1.75;;
26702;SDS011;14316;51.074;3.704;2024-01-30T09:45:24;2.92;;;1.38;;
26702;SDS011;14316;51.074;3.704;2024-01-30T09:47:50;3.22;;;1.67;;
26702;SDS011;14316;51.074;3.704;2024-01-30T09:50:17;6.10;;;1.40;;
26702;SDS011;14316;51.074;3.704;2024-01-30T09:52:47;4.47;;;1.35;;
26702;SDS011;14316;51.074;3.704;2024-01-30T09:55:13;5.93;;;1.60;;
26702;SDS011;14316;51.074;3.704;2024-01-30T09:57:39;6.05;;;1.30;;
26702;SDS011;14316;51.074;3.704;2024-01-30T10:00:07;4.95;;;1.50;;
26702;SDS011;14316;51.074;3.704;2024-01-30T10:02:34;2.88;;;1.02;;
26702;SDS011;14316;51.074;3.704;2024-01-30T10:05:00;1.30;;;0.70;;
26702;SDS011;14316;51.074;3.704;2024-01-30T10:07:27;3.00;;;1.27;;
26702;SDS011;14316;51.074;3.704;2024-01-30T10:09:53;1.90;;;0.60;;
26702;SDS011;14316;51.074;3.704;2024-01-30T10:12:21;1.40;;;0.60;;
26702;SDS011;14316;51.074;3.704;2024-01-30T10:14:48;3.60;;;1.13;;
26702;SDS011;14316;51.074;3.704;2024-01-30T10:17:13;1.95;;;0.70;;
26702;SDS011;14316;51.074;3.704;2024-01-30T10:19:39;1.23;;;0.70;;
26702;SDS011;14316;51.074;3.704;2024-01-30T10:22:06;1.73;;;0.95;;
26702;SDS011;14316;51.074;3.704;2024-01-30T10:24:35;1.15;;;0.70;;
26702;SDS011;14316;51.074;3.704;2024-01-30T10:27:02;2.28;;;0.98;;
26702;SDS011;14316;51.074;3.704;2024-01-30T10:29:28;3.25;;;1.00;;
26702;SDS011;14316;51.074;3.704;2024-01-30T10:31:57;2.15;;;0.80;;
26702;SDS011;14316;51.074;3.704;2024-01-30T10:34:24;3.90;;;1.08;;
26702;SDS011;14316;51.074;3.704;2024-01-30T10:36:51;4.53;;;1.05;;
26702;SDS011;14316;51.074;3.704;2024-01-30T10:39:42;3.47;;;1.55;;
26702;SDS011;14316;51.074;3.704;2024-01-30T10:42:15;6.32;;;2.00;;
26702;SDS011;14316;51.074;3.704;2024-01-30T10:47:13;4.63;;;1.80;;
26702;SDS011;14316;51.074;3.704;2024-01-30T10:49:43;3.58;;;1.25;;
26702;SDS011;14316;51.074;3.704;2024-01-30T10:52:11;5.88;;;2.15;;
26702;SDS011;14316;51.074;3.704;2024-01-30T10:54:40;5.18;;;2.40;;
26702;SDS011;14316;51.074;3.704;2024-01-30T10:57:10;4.88;;;1.73;;
26702;SDS011;14316;51.074;3.704;2024-01-30T10:59:37;3.65;;;1.88;;
26702;SDS011;14316;51.074;3.704;2024-01-30T11:02:04;3.72;;;1.75;;
26702;SDS011;14316;51.074;3.704;2024-01-30T11:04:37;2.38;;;1.02;;
26702;SDS011;14316;51.074;3.704;2024-01-30T11:07:19;5.78;;;1.55;;
26702;SDS011;14316;51.074;3.704;2024-01-30T11:09:50;5.20;;;1.20;;
26702;SDS011;14316;51.074;3.704;2024-01-30T11:12:21;3.00;;;1.15;;
26702;SDS011;14316;51.074;3.704;2024-01-30T11:14:48;4.50;;;1.58;;
26702;SDS011;14316;51.074;3.704;2024-01-30T11:17:15;3.55;;;1.70;;
26702;SDS011;14316;51.074;3.704;2024-01-30T11:19:41;5.43;;;1.50;;
26702;SDS011;14316;51.074;3.704;2024-01-30T11:22:10;4.40;;;1.08;;
26702;SDS011;14316;51.074;3.704;2024-01-30T11:24:42;8.63;;;1.80;;
26702;SDS011;14316;51.074;3.704;2024-01-30T11:27:08;2.58;;;1.17;;
26702;SDS011;14316;51.074;3.704;2024-01-30T11:29:37;4.80;;;1.40;;
26702;SDS011;14316;51.074;3.704;2024-01-30T11:32:05;4.53;;;1.50;;
26702;SDS011;14316;51.074;3.704;2024-01-30T11:34:32;7.35;;;1.42;;
26702;SDS011;14316;51.074;3.704;2024-01-30T11:37:03;3.47;;;1.15;;
26702;SDS011;14316;51.074;3.704;2024-01-30T11:39:32;2.55;;;1.23;;
26702;SDS011;14316;51.074;3.704;2024-01-30T11:41:59;5.07;;;1.58;;
26702;SDS011;14316;51.074;3.704;2024-01-30T11:44:25;7.57;;;1.75;;
26702;SDS011;14316;51.074;3.704;2024-01-30T11:46:52;3.00;;;1.63;;
26702;SDS011;14316;51.074;3.704;2024-01-30T11:49:18;4.80;;;1.40;;
26702;SDS011;14316;51.074;3.704;2024-01-30T11:51:45;6.75;;;1.70;;
26702;SDS011;14316;51.074;3.704;2024-01-30T11:54:13;6.35;;;1.35;;
26702;SDS011;14316;51.074;3.704;2024-01-30T11:56:40;3.58;;;2.15;;
26702;SDS011;14316;51.074;3.704;2024-01-30T11:59:08;6.10;;;1.77;;
26702;SDS011;14316;51.074;3.704;2024-01-30T12:01:34;7.63;;;1.92;;
26702;SDS011;14316;51.074;3.704;2024-01-30T12:04:00;5.07;;;1.77;;
26702;SDS011;14316;51.074;3.704;2024-01-30T12:06:26;2.28;;;1.13;;
26702;SDS011;14316;51.074;3.704;2024-01-30T12:08:59;5.45;;;1.83;;
26702;SDS011;14316;51.074;3.704;2024-01-30T12:11:43;6.65;;;1.33;;
26702;SDS011;14316;51.074;3.704;2024-01-30T12:14:09;4.13;;;1.13;;
26702;SDS011;14316;51.074;3.704;2024-01-30T12:16:36;4.75;;;1.85;;
26702;SDS011;14316;51.074;3.704;2024-01-30T12:19:02;3.80;;;1.13;;
26702;SDS011;14316;51.074;3.704;2024-01-30T12:21:28;4.63;;;1.67;;
26702;SDS011;14316;51.074;3.704;2024-01-30T12:23:55;4.93;;;1.65;;
26702;SDS011;14316;51.074;3.704;2024-01-30T12:26:23;7.10;;;1.63;;
26702;SDS011;14316;51.074;3.704;2024-01-30T12:28:50;3.05;;;1.35;;
26702;SDS011;14316;51.074;3.704;2024-01-30T12:31:25;5.53;;;1.00;;
26702;SDS011;14316;51.074;3.704;2024-01-30T12:33:52;5.05;;;1.25;;
26702;SDS011;14316;51.074;3.704;2024-01-30T12:36:18;3.67;;;1.08;;
26702;SDS011;14316;51.074;3.704;2024-01-30T12:38:44;5.18;;;1.23;;
26702;SDS011;14316;51.074;3.704;2024-01-30T12:41:10;3.35;;;0.77;;
26702;SDS011;14316;51.074;3.704;2024-01-30T12:43:36;5.85;;;1.95;;
26702;SDS011;14316;51.074;3.704;2024-01-30T12:46:02;3.78;;;1.25;;
26702;SDS011;14316;51.074;3.704;2024-01-30T12:48:28;2.88;;;1.02;;
26702;SDS011;14316;51.074;3.704;2024-01-30T12:50:55;2.53;;;0.90;;
26702;SDS011;14316;51.074;3.704;2024-01-30T12:53:22;4.43;;;1.17;;
26702;SDS011;14316;51.074;3.704;2024-01-30T12:55:47;3.10;;;1.15;;
26702;SDS011;14316;51.074;3.704;2024-01-30T12:58:15;3.90;;;1.02;;
26702;SDS011;14316;51.074;3.704;2024-01-30T13:00:41;5.20;;;1.58;;
26702;SDS011;14316;51.074;3.704;2024-01-30T13:03:10;5.13;;;1.30;;
26702;SDS011;14316;51.074;3.704;2024-01-30T13:05:36;1.38;;;1.05;;
26702;SDS011;14316;51.074;3.704;2024-01-30T13:08:02;6.63;;;1.17;;
26702;SDS011;14316;51.074;3.704;2024-01-30T13:10:30;2.88;;;1.42;;
26702;SDS011;14316;51.074;3.704;2024-01-30T13:12:56;6.78;;;1.45;;
26702;SDS011;14316;51.074;3.704;2024-01-30T13:15:22;5.45;;;1.55;;
26702;SDS011;14316;51.074;3.704;2024-01-30T13:17:48;2.33;;;1.30;;
26702;SDS011;14316;51.074;3.704;2024-01-30T13:20:15;4.10;;;1.73;;
26702;SDS011;14316;51.074;3.704;2024-01-30T13:22:47;3.42;;;1.55;;
26702;SDS011;14316;51.074;3.704;2024-01-30T13:25:16;5.28;;;1.70;;
26702;SDS011;14316;51.074;3.704;2024-01-30T13:27:42;2.20;;;1.00;;
26702;SDS011;14316;51.074;3.704;2024-01-30T13:30:08;6.15;;;1.38;;
26702;SDS011;14316;51.074;3.704;2024-01-30T13:32:34;2.70;;;1.27;;
26702;SDS011;14316;51.074;3.704;2024-01-30T13:35:01;4.30;;;1.45;;
26702;SDS011;14316;51.074;3.704;2024-01-30T13:37:27;2.53;;;1.40;;
26702;SDS011;14316;51.074;3.704;2024-01-30T13:39:53;6.22;;;1.88;;
26702;SDS011;14316;51.074;3.704;2024-01-30T13:42:18;3.45;;;1.23;;
26702;SDS011;14316;51.074;3.704;2024-01-30T13:44:44;5.53;;;1.85;;
26702;SDS011;14316;51.074;3.704;2024-01-30T13:47:10;4.70;;;2.17;;
26702;SDS011;14316;51.074;3.704;2024-01-30T13:49:36;6.82;;;1.48;;
26702;SDS011;14316;51.074;3.704;2024-01-30T13:52:02;5.32;;;1.50;;
26702;SDS011;14316;51.074;3.704;2024-01-30T13:54:28;6.80;;;2.20;;
26702;SDS011;14316;51.074;3.704;2024-01-30T13:56:55;2.90;;;1.85;;
26702;SDS011;14316;51.074;3.704;2024-01-30T13:59:21;4.78;;;2.00;;
26702;SDS011;14316;51.074;3.704;2024-01-30T14:01:50;4.10;;;1.60;;
26702;SDS011;14316;51.074;3.704;2024-01-30T14:04:16;7.22;;;2.80;;
26702;SDS011;14316;51.074;3.704;2024-01-30T14:06:42;7.97;;;2.30;;
26702;SDS011;14316;51.074;3.704;2024-01-30T14:09:08;2.92;;;1.65;;
26702;SDS011;14316;51.074;3.704;2024-01-30T14:11:36;6.10;;;2.33;;
26702;SDS011;14316;51.074;3.704;2024-01-30T14:14:01;4.10;;;2.30;;
26702;SDS011;14316;51.074;3.704;2024-01-30T14:16:27;5.38;;;1.83;;
26702;SDS011;14316;51.074;3.704;2024-01-30T14:18:54;5.72;;;2.72;;
26702;SDS011;14316;51.074;3.704;2024-01-30T14:21:19;5.60;;;2.45;;
26702;SDS011;14316;51.074;3.704;2024-01-30T14:23:45;3.85;;;1.85;;
26702;SDS011;14316;51.074;3.704;2024-01-30T14:26:12;5.97;;;2.15;;
26702;SDS011;14316;51.074;3.704;2024-01-30T14:28:38;9.30;;;3.40;;
26702;SDS011;14316;51.074;3.704;2024-01-30T14:31:04;4.45;;;2.10;;
26702;SDS011;14316;51.074;3.704;2024-01-30T14:33:30;4.68;;;2.45;;
26702;SDS011;14316;51.074;3.704;2024-01-30T14:35:56;6.10;;;3.45;;
26702;SDS011;14316;51.074;3.704;2024-01-30T14:38:22;8.02;;;3.22;;